Ely Airport Yelland Field Ely US
ICAO: KELY
IATA: ELY
Category: Medium
Scheduled Services: No

Elevation: 6259 ft
TransAlt. 18000 ft.

Airport Communications:
ASOS:120.625
SALT LAKE CNTR:133.45
CTAF/UNICOM:122.8

KELY Zoom In..

If Map Doesn't Load, Click Here

Runways:

(A) RW 12 length 4825 ft width 60 ft
---- / hdg 127

(B) RW 18 length 6018 ft width 150 ft
---- / hdg 180

(C) RW 30 length 4825 ft width 60 ft
---- / hdg 307

(D) RW 36 length 6018 ft width 150 ft
---- / hdg 360

Location; KELY
Day. 21 / Time. 14.53 Zulu
* Altimeter: 30.29
* Temperature: 07° c. 44.6°f.
* Wind from: 160° Speed 07 kn.
Dewpoint: -11° c.
Visibility: 10 Statute Miles.
Clouds: Clear (automated report).

KELY 211453Z AUTO 16007KT 10SM CLR 07/M11 A3029 RMK AO2 SLP200 T00721106 53008


Wind From 160°
Speed 07 kn.

 
 
jpsmedia.com for Web Design worldairports.se 2018   terms of use